createdAt,value
2022-10-02T00:00:01.987Z,101875.41
2022-10-02T00:02:43.839Z,101878.63
2022-10-02T00:05:15.877Z,101882.03
2022-10-02T00:07:47.731Z,101880.84
2022-10-02T00:10:21.295Z,101881.69
2022-10-02T00:12:55.295Z,101886.41
2022-10-02T00:15:28.180Z,101883.19
2022-10-02T00:18:03.497Z,101880.66
2022-10-02T00:20:40.709Z,101883.84
2022-10-02T00:23:17.079Z,101886.84
2022-10-02T00:25:52.691Z,101871.09
2022-10-02T00:28:27.747Z,101878.06
2022-10-02T00:31:13.980Z,101881.13
2022-10-02T00:33:56.737Z,101886.38
2022-10-02T00:36:36.473Z,101887.72
2022-10-02T00:39:16.226Z,101886.34
2022-10-02T00:42:35.206Z,101884.97
2022-10-02T00:45:38.427Z,101879.22
2022-10-02T00:48:19.270Z,101873.75
2022-10-02T00:50:59.076Z,101872.88
2022-10-02T00:53:37.886Z,101867.94
2022-10-02T00:56:17.419Z,101750.00
2022-10-02T00:59:01.196Z,101863.53
2022-10-02T01:01:37.965Z,101870.41
2022-10-02T01:04:10.612Z,101867.50
2022-10-02T01:06:40.721Z,101871.19
2022-10-02T01:09:09.010Z,101876.22
2022-10-02T01:11:39.529Z,101874.50
2022-10-02T01:14:08.278Z,101882.91
2022-10-02T01:16:36.819Z,101879.84
2022-10-02T01:19:05.438Z,101886.34
2022-10-02T01:21:40.418Z,101880.19
2022-10-02T01:24:16.883Z,101874.94
2022-10-02T01:26:47.431Z,101874.59
2022-10-02T01:29:15.901Z,101866.66
2022-10-02T01:31:44.563Z,101876.59
2022-10-02T01:34:13.504Z,101870.50
2022-10-02T01:36:41.820Z,101860.88
2022-10-02T01:39:11.474Z,101863.81
2022-10-02T01:41:45.063Z,101852.84
2022-10-02T01:44:16.390Z,101811.47
2022-10-02T01:46:53.097Z,101846.72
2022-10-02T01:49:46.216Z,101841.69
2022-10-02T01:52:36.708Z,101836.22
2022-10-02T01:55:18.147Z,101831.97
2022-10-02T01:58:01.031Z,101828.94
2022-10-02T02:00:37.406Z,101820.44
2022-10-02T02:03:15.410Z,101828.53
2022-10-02T02:05:50.521Z,101824.44
2022-10-02T02:08:28.823Z,101828.75
2022-10-02T02:11:10.359Z,101796.25
2022-10-02T02:13:45.943Z,101836.63
2022-10-02T02:16:26.013Z,101833.84
2022-10-02T02:19:01.452Z,101833.22
2022-10-02T02:21:34.527Z,101816.41
2022-10-02T02:24:10.639Z,101827.44
2022-10-02T02:26:44.208Z,101808.31
2022-10-02T02:29:15.074Z,101818.09
2022-10-02T02:31:50.530Z,101813.38
2022-10-02T02:34:23.052Z,101834.06
2022-10-02T02:36:57.476Z,101842.88
2022-10-02T02:39:32.147Z,101836.09
2022-10-02T02:42:04.296Z,101836.38
2022-10-02T02:44:36.308Z,101835.81
2022-10-02T02:47:12.828Z,101837.22
2022-10-02T02:49:50.030Z,101839.91
2022-10-02T02:52:22.662Z,101851.13
2022-10-02T02:54:57.654Z,101850.28
2022-10-02T02:57:31.434Z,101856.09
2022-10-02T03:00:02.304Z,101859.41
2022-10-02T03:02:33.039Z,101851.88
2022-10-02T03:05:01.422Z,101845.34
2022-10-02T03:07:29.840Z,101855.56
2022-10-02T03:10:07.425Z,101858.69
2022-10-02T03:12:49.918Z,101860.41
2022-10-02T03:15:28.334Z,101857.31
2022-10-02T03:18:13.492Z,101844.28
2022-10-02T03:20:50.636Z,101848.81
2022-10-02T03:23:27.920Z,101843.44
2022-10-02T03:26:04.023Z,101848.81
2022-10-02T03:28:55.144Z,101851.22
2022-10-02T03:31:26.974Z,101842.16
2022-10-02T03:33:59.507Z,101831.69
2022-10-02T03:36:28.080Z,101833.53
2022-10-02T03:39:23.772Z,101836.09
2022-10-02T03:41:48.568Z,101840.34
2022-10-02T03:44:16.834Z,101849.84
2022-10-02T03:46:45.823Z,101848.84
2022-10-02T03:49:15.463Z,101851.53
2022-10-02T03:51:44.234Z,101854.50
2022-10-02T03:54:17.691Z,101853.38
2022-10-02T03:56:54.391Z,101858.03
2022-10-02T03:59:41.338Z,101867.81
2022-10-02T04:02:19.735Z,101828.31
2022-10-02T04:04:53.608Z,101743.38
2022-10-02T04:07:27.246Z,101868.78
2022-10-02T04:10:08.762Z,101874.88
2022-10-02T04:12:42.809Z,101883.53
2022-10-02T04:15:21.064Z,101883.09
2022-10-02T04:17:58.804Z,101882.25
2022-10-02T04:20:41.786Z,101888.19
2022-10-02T04:23:17.529Z,101888.03
2022-10-02T04:25:50.920Z,101889.59
2022-10-02T04:28:24.550Z,101883.25
2022-10-02T04:30:53.794Z,101881.53
2022-10-02T04:33:25.643Z,101882.41
2022-10-02T04:36:08.298Z,101885.63
2022-10-02T04:38:54.598Z,101886.47
2022-10-02T04:41:46.054Z,101887.19
2022-10-02T04:44:30.828Z,101893.22
2022-10-02T04:47:14.779Z,101893.94
2022-10-02T04:50:10.795Z,101890.28
2022-10-02T04:53:12.305Z,101901.75
2022-10-02T04:55:53.644Z,101890.00
2022-10-02T04:58:34.813Z,101891.84
2022-10-02T05:01:14.987Z,101896.50
2022-10-02T05:04:05.482Z,101889.41
2022-10-02T05:06:47.486Z,101896.63
2022-10-02T05:09:28.316Z,101899.31
2022-10-02T05:12:15.708Z,101900.31
2022-10-02T05:15:13.311Z,101909.19
2022-10-02T05:17:55.519Z,101910.44
2022-10-02T05:20:37.630Z,101914.81
2022-10-02T05:23:20.818Z,101912.69
2022-10-02T05:26:20.054Z,101912.53
2022-10-02T05:29:06.925Z,101914.50
2022-10-02T05:31:49.788Z,101916.34
2022-10-02T05:34:32.808Z,101914.59
2022-10-02T05:37:26.132Z,101918.13
2022-10-02T05:40:03.062Z,101916.84
2022-10-02T05:42:42.345Z,101900.97
2022-10-02T05:45:23.505Z,101915.53
2022-10-02T05:47:55.215Z,101922.44
2022-10-02T05:50:28.668Z,101925.28
2022-10-02T05:53:00.611Z,101933.72
2022-10-02T05:55:36.706Z,101890.34
2022-10-02T05:58:09.323Z,101930.84
2022-10-02T06:00:42.387Z,101928.28
2022-10-02T06:03:17.897Z,101923.78
2022-10-02T06:05:55.465Z,101921.81
2022-10-02T06:08:33.368Z,101927.44
2022-10-02T06:11:08.207Z,101926.00
2022-10-02T06:13:45.109Z,101921.88
2022-10-02T06:16:21.811Z,101939.88
2022-10-02T06:18:57.853Z,101939.63
2022-10-02T06:21:32.750Z,101941.91
2022-10-02T06:24:05.911Z,101945.19
2022-10-02T06:26:43.120Z,101934.88
2022-10-02T06:29:22.512Z,101908.66
2022-10-02T06:32:05.062Z,101946.31
2022-10-02T06:34:33.383Z,101950.13
2022-10-02T06:37:29.546Z,101950.19
2022-10-02T06:40:34.418Z,101951.84
2022-10-02T06:43:13.342Z,101920.09
2022-10-02T06:45:53.332Z,101950.38
2022-10-02T06:48:26.805Z,101963.69
2022-10-02T06:51:01.671Z,101962.88
2022-10-02T06:53:46.665Z,101960.09
2022-10-02T06:56:37.725Z,101955.84
2022-10-02T06:59:24.814Z,101962.66
2022-10-02T07:02:03.322Z,101957.28
2022-10-02T07:04:48.019Z,101954.63
2022-10-02T07:07:28.153Z,101948.69
2022-10-02T07:10:18.520Z,101955.28
2022-10-02T07:13:13.010Z,101959.25
2022-10-02T07:15:58.115Z,101973.66
2022-10-02T07:18:42.783Z,101973.59
2022-10-02T07:21:21.519Z,101977.63
2022-10-02T07:24:02.217Z,101985.34
2022-10-02T07:26:46.287Z,101987.91
2022-10-02T07:29:33.233Z,101988.78
2022-10-02T07:32:31.865Z,101990.88
2022-10-02T07:35:09.455Z,101983.91
2022-10-02T07:37:49.581Z,101981.81
2022-10-02T07:40:36.263Z,101985.31
2022-10-02T07:43:18.148Z,101988.03
2022-10-02T07:45:56.113Z,101980.19
2022-10-02T07:48:34.475Z,101978.53
2022-10-02T07:51:50.189Z,101967.84
2022-10-02T07:54:49.047Z,101968.63
2022-10-02T07:57:28.858Z,101965.69
2022-10-02T08:00:04.057Z,101957.81
2022-10-02T08:02:44.498Z,101965.38
2022-10-02T08:05:21.005Z,101950.28
2022-10-02T08:07:55.465Z,101962.69
2022-10-02T08:10:27.735Z,101962.25
2022-10-02T08:13:04.770Z,101962.88
2022-10-02T08:15:38.845Z,101965.19
2022-10-02T08:18:35.337Z,101961.19
2022-10-02T08:21:09.943Z,101962.81
2022-10-02T08:23:44.789Z,101970.69
2022-10-02T08:26:19.192Z,101964.16
2022-10-02T08:28:53.871Z,101966.84
2022-10-02T08:31:24.568Z,101948.84
2022-10-02T08:33:53.112Z,101951.75
2022-10-02T08:36:48.410Z,101968.47
2022-10-02T08:39:35.514Z,101967.06
2022-10-02T08:42:36.982Z,101969.22
2022-10-02T08:45:34.092Z,101966.97
2022-10-02T08:48:32.133Z,101959.34
2022-10-02T08:51:20.843Z,101958.75
2022-10-02T08:54:29.385Z,101956.50
2022-10-02T08:57:14.721Z,101958.00
2022-10-02T09:00:09.610Z,101957.81
2022-10-02T09:03:24.899Z,101963.91
2022-10-02T09:06:24.386Z,101960.34
2022-10-02T09:09:36.125Z,101961.84
2022-10-02T09:12:38.030Z,101957.03
2022-10-02T09:15:17.126Z,101958.53
2022-10-02T09:17:50.528Z,101959.00
2022-10-02T09:20:55.428Z,101951.91
2022-10-02T09:23:59.306Z,101954.44
2022-10-02T09:26:38.108Z,101949.47
2022-10-02T09:29:44.839Z,101947.84
2022-10-02T09:33:01.510Z,101951.59
2022-10-02T09:36:08.927Z,101936.31
2022-10-02T09:39:15.254Z,101942.78
2022-10-02T09:42:07.319Z,101933.56
2022-10-02T09:45:21.234Z,101932.16
2022-10-02T09:48:21.059Z,101927.16
2022-10-02T09:51:18.955Z,101931.84
2022-10-02T09:54:21.457Z,101925.16
2022-10-02T09:57:35.916Z,101923.16
2022-10-02T10:00:24.471Z,101921.34
2022-10-02T10:03:13.387Z,101927.03
2022-10-02T10:06:17.880Z,101914.50
2022-10-02T10:09:09.448Z,101910.31
2022-10-02T10:12:02.882Z,101915.19
2022-10-02T10:15:10.095Z,101915.03
2022-10-02T10:18:12.319Z,101911.72
2022-10-02T10:21:29.441Z,101901.91
2022-10-02T10:24:34.138Z,101886.22
2022-10-02T10:27:40.232Z,101883.59
2022-10-02T10:30:48.285Z,101871.88
2022-10-02T10:33:48.434Z,101887.50
2022-10-02T10:36:49.094Z,101875.16
2022-10-02T10:39:54.811Z,101872.28
2022-10-02T10:43:06.432Z,101866.03
2022-10-02T10:45:48.606Z,101866.91
2022-10-02T10:48:39.094Z,101867.34
2022-10-02T10:51:30.725Z,101852.66
2022-10-02T10:54:30.537Z,101856.41
2022-10-02T10:57:08.873Z,101853.09
2022-10-02T11:00:14.222Z,101859.16
2022-10-02T11:03:18.057Z,101843.53
2022-10-02T11:06:12.872Z,101842.03
2022-10-02T11:09:05.549Z,101842.41
2022-10-02T11:11:41.904Z,101844.72
2022-10-02T11:14:27.927Z,101838.16
2022-10-02T11:17:24.935Z,101840.66
2022-10-02T11:20:08.722Z,101834.94
2022-10-02T11:22:55.323Z,101829.44
2022-10-02T11:25:47.097Z,101836.78
2022-10-02T11:28:41.167Z,101828.53
2022-10-02T11:31:30.764Z,101826.00
2022-10-02T11:34:22.302Z,101816.31
2022-10-02T11:37:04.095Z,101825.09
2022-10-02T11:39:50.096Z,101813.47
2022-10-02T11:42:45.531Z,101813.03
2022-10-02T11:45:39.010Z,101816.59
2022-10-02T11:48:28.097Z,101811.31
2022-10-02T11:51:17.483Z,101802.03
2022-10-02T11:54:11.600Z,101798.44
2022-10-02T11:57:09.693Z,101794.41
2022-10-02T12:00:06.017Z,101793.72
2022-10-02T12:02:56.449Z,101783.38
2022-10-02T12:05:53.601Z,101779.53
2022-10-02T12:08:34.448Z,101783.50
2022-10-02T12:11:13.248Z,101772.09
2022-10-02T12:14:01.618Z,101761.31
2022-10-02T12:16:48.867Z,101766.69
2022-10-02T12:19:27.775Z,101768.94
2022-10-02T12:22:25.660Z,101756.22
2022-10-02T12:25:21.138Z,101750.34
2022-10-02T12:28:01.992Z,101750.50
2022-10-02T12:30:40.802Z,101739.53
2022-10-02T12:33:23.175Z,101730.69
2022-10-02T12:36:21.367Z,101738.28
2022-10-02T12:39:05.363Z,101726.03
2022-10-02T12:41:47.259Z,101717.31
2022-10-02T12:44:35.773Z,101721.03
2022-10-02T12:47:24.033Z,101712.13
2022-10-02T12:50:05.881Z,101709.16
2022-10-02T12:53:18.671Z,101712.75
2022-10-02T12:56:35.507Z,101711.69
2022-10-02T12:59:14.020Z,101698.25
2022-10-02T13:02:33.096Z,101695.75
2022-10-02T13:05:36.697Z,101688.81
2022-10-02T13:08:23.625Z,101680.81
2022-10-02T13:11:02.154Z,101686.69
2022-10-02T13:13:52.808Z,101686.59
2022-10-02T13:16:32.507Z,101687.59
2022-10-02T13:19:10.530Z,101689.19
2022-10-02T13:21:50.762Z,101682.75
2022-10-02T13:24:32.978Z,101679.19
2022-10-02T13:27:14.234Z,101672.84
2022-10-02T13:30:03.985Z,101676.91
2022-10-02T13:32:44.845Z,101669.03
2022-10-02T13:35:34.627Z,101661.88
2022-10-02T13:38:30.621Z,101671.31
2022-10-02T13:41:13.338Z,101661.41
2022-10-02T13:44:03.423Z,101657.84
2022-10-02T13:46:47.593Z,101652.69
2022-10-02T13:49:28.805Z,101644.91
2022-10-02T13:52:04.790Z,101644.47
2022-10-02T13:55:04.766Z,101645.28
2022-10-02T13:57:49.750Z,101635.38
2022-10-02T14:00:25.218Z,101633.81
2022-10-02T14:03:08.109Z,101637.78
2022-10-02T14:05:43.507Z,101632.31
2022-10-02T14:08:35.544Z,101631.22
2022-10-02T14:11:16.743Z,101630.41
2022-10-02T14:14:03.194Z,101616.44
2022-10-02T14:16:45.757Z,101619.88
2022-10-02T14:19:31.804Z,101610.56
2022-10-02T14:22:21.613Z,101613.78
2022-10-02T14:25:22.866Z,101604.38
2022-10-02T14:28:06.180Z,101599.56
2022-10-02T14:30:59.988Z,101595.38
2022-10-02T14:33:44.361Z,101577.41
2022-10-02T14:36:20.328Z,101596.31
2022-10-02T14:39:01.726Z,101585.19
2022-10-02T14:41:55.350Z,101586.16
2022-10-02T14:44:47.155Z,101588.09
2022-10-02T14:47:37.750Z,101589.84
2022-10-02T14:50:23.459Z,101585.66
2022-10-02T14:53:27.639Z,101587.09
2022-10-02T14:56:21.871Z,101589.47
2022-10-02T14:59:04.005Z,101583.16
2022-10-02T15:01:39.856Z,101579.78
2022-10-02T15:04:39.872Z,101578.81
2022-10-02T15:07:11.924Z,101547.78
2022-10-02T15:09:54.641Z,101582.09
2022-10-02T15:12:28.526Z,101571.38
2022-10-02T15:15:09.280Z,101573.50
2022-10-02T15:17:57.155Z,101577.16
2022-10-02T15:20:32.252Z,101575.94
2022-10-02T15:23:03.291Z,101557.28
2022-10-02T15:25:55.721Z,101561.72
2022-10-02T15:28:37.915Z,101560.56
2022-10-02T15:31:17.369Z,101553.59
2022-10-02T15:33:50.661Z,101546.81
2022-10-02T15:36:38.538Z,101563.38
2022-10-02T15:39:21.292Z,101554.22
2022-10-02T15:42:05.522Z,101558.47
2022-10-02T15:44:56.209Z,101553.03
2022-10-02T15:47:49.322Z,101557.72
2022-10-02T15:50:35.498Z,101554.38
2022-10-02T15:53:27.294Z,101557.56
2022-10-02T15:56:00.831Z,101530.59
2022-10-02T15:58:50.808Z,101559.53
2022-10-02T16:01:42.866Z,101564.44
2022-10-02T16:04:24.249Z,101555.63
2022-10-02T16:07:21.397Z,101558.25
2022-10-02T16:09:58.778Z,101557.03
2022-10-02T16:12:39.302Z,101548.47
2022-10-02T16:15:23.001Z,101549.16
2022-10-02T16:18:02.230Z,101555.09
2022-10-02T16:20:44.306Z,101559.75
2022-10-02T16:23:39.306Z,101561.06
2022-10-02T16:26:23.557Z,101562.97
2022-10-02T16:29:01.255Z,101548.09
2022-10-02T16:31:48.995Z,101549.19
2022-10-02T16:34:32.771Z,101555.94
2022-10-02T16:37:09.264Z,101557.50
2022-10-02T16:39:50.720Z,101553.09
2022-10-02T16:42:22.354Z,101560.94
2022-10-02T16:45:04.007Z,101565.56
2022-10-02T16:47:44.127Z,101565.59
2022-10-02T16:50:19.337Z,101576.09
2022-10-02T16:52:55.163Z,101559.72
2022-10-02T16:55:33.509Z,101569.19
2022-10-02T16:58:13.391Z,101567.53
2022-10-02T17:00:54.219Z,101537.94
2022-10-02T17:03:31.598Z,101571.94
2022-10-02T17:06:08.479Z,101575.31
2022-10-02T17:08:44.725Z,101570.84
2022-10-02T17:11:21.935Z,101570.84
2022-10-02T17:14:03.680Z,101571.44
2022-10-02T17:16:38.182Z,101573.56
2022-10-02T17:19:21.985Z,101521.84
2022-10-02T17:21:54.746Z,101557.53
2022-10-02T17:24:35.701Z,101577.47
2022-10-02T17:27:14.633Z,101587.03
2022-10-02T17:29:52.992Z,101584.25
2022-10-02T17:32:48.362Z,101576.84
2022-10-02T17:35:29.275Z,101567.06
2022-10-02T17:38:26.686Z,101594.72
2022-10-02T17:41:06.418Z,101597.38
2022-10-02T17:43:43.532Z,101576.09
2022-10-02T17:46:47.258Z,101612.81
2022-10-02T17:49:27.636Z,101584.38
2022-10-02T17:52:21.830Z,101606.63
2022-10-02T17:55:22.166Z,101610.63
2022-10-02T17:58:02.881Z,101610.16
2022-10-02T18:00:36.896Z,101612.69
2022-10-02T18:03:32.586Z,101625.00
2022-10-02T18:06:15.987Z,101622.88
2022-10-02T18:09:25.659Z,101626.38
2022-10-02T18:12:16.075Z,101626.06
2022-10-02T18:15:22.956Z,101631.84
2022-10-02T18:18:24.802Z,101630.06
2022-10-02T18:21:08.506Z,101631.25
2022-10-02T18:24:11.273Z,101625.56
2022-10-02T18:26:57.318Z,101624.53
2022-10-02T18:29:42.288Z,101631.75
2022-10-02T18:32:28.511Z,101595.94
2022-10-02T18:35:32.309Z,101629.03
2022-10-02T18:38:13.690Z,101626.31
2022-10-02T18:40:55.190Z,101620.88
2022-10-02T18:43:39.019Z,101619.00
2022-10-02T18:46:18.167Z,101620.03
2022-10-02T18:49:18.851Z,101626.47
2022-10-02T18:52:16.756Z,101625.91
2022-10-02T18:55:09.237Z,101637.16
2022-10-02T18:57:52.851Z,101641.22
2022-10-02T19:00:24.718Z,101641.47
2022-10-02T19:03:17.971Z,101637.44
2022-10-02T19:05:52.334Z,101641.75
2022-10-02T19:08:27.569Z,101640.06
2022-10-02T19:10:56.276Z,101554.50
2022-10-02T19:13:28.006Z,101609.75
2022-10-02T19:16:01.324Z,101614.81
2022-10-02T19:18:32.966Z,101637.91
2022-10-02T19:21:06.776Z,101642.13
2022-10-02T19:23:39.634Z,101639.16
2022-10-02T19:26:17.939Z,101647.03
2022-10-02T19:28:49.449Z,101653.03
2022-10-02T19:31:24.247Z,101657.81
2022-10-02T19:33:55.733Z,101630.19
2022-10-02T19:36:27.437Z,101660.22
2022-10-02T19:38:59.427Z,101654.97
2022-10-02T19:41:27.868Z,101661.81
2022-10-02T19:44:00.101Z,101667.00
2022-10-02T19:46:39.537Z,101658.28
2022-10-02T19:49:09.846Z,101663.09
2022-10-02T19:51:47.073Z,101660.47
2022-10-02T19:54:21.115Z,101667.56
2022-10-02T19:56:53.519Z,101670.81
2022-10-02T19:59:26.785Z,101660.72
2022-10-02T20:02:02.293Z,101665.38
2022-10-02T20:04:33.195Z,101671.03
2022-10-02T20:07:02.226Z,101665.88
2022-10-02T20:09:37.472Z,101663.22
2022-10-02T20:12:11.981Z,101662.91
2022-10-02T20:14:44.283Z,101646.94
2022-10-02T20:17:17.833Z,101676.94
2022-10-02T20:19:52.934Z,101673.91
2022-10-02T20:22:31.584Z,101673.41
2022-10-02T20:25:05.232Z,101669.97
2022-10-02T20:27:42.478Z,101673.25
2022-10-02T20:30:15.143Z,101665.13
2022-10-02T20:32:50.806Z,101660.91
2022-10-02T20:35:29.200Z,101669.09
2022-10-02T20:37:59.663Z,101665.03
2022-10-02T20:40:31.556Z,101673.56
2022-10-02T20:43:06.730Z,101674.78
2022-10-02T20:45:44.254Z,101672.13
2022-10-02T20:49:06.873Z,101673.47
2022-10-02T20:52:09.181Z,101680.56
2022-10-02T20:54:51.701Z,101679.56
2022-10-02T20:58:16.463Z,101686.84
2022-10-02T21:01:01.145Z,101691.06
2022-10-02T21:03:55.755Z,101687.34
2022-10-02T21:06:48.394Z,101686.03
2022-10-02T21:09:54.021Z,101690.56
2022-10-02T21:12:58.422Z,101689.72
2022-10-02T21:16:10.858Z,101692.09
2022-10-02T21:19:10.395Z,101685.69
2022-10-02T21:22:09.848Z,101676.22
2022-10-02T21:25:25.369Z,101686.66
2022-10-02T21:28:33.519Z,101683.97
2022-10-02T21:31:15.147Z,101675.84
2022-10-02T21:33:58.057Z,101685.31
2022-10-02T21:36:33.777Z,101685.47
2022-10-02T21:39:44.869Z,101693.44
2022-10-02T21:42:45.045Z,101699.50
2022-10-02T21:45:40.306Z,101696.84
2022-10-02T21:48:43.862Z,101700.38
2022-10-02T21:51:53.788Z,101694.13
2022-10-02T21:54:59.506Z,101687.34
2022-10-02T21:57:57.494Z,101683.09
2022-10-02T22:00:27.511Z,101690.88
2022-10-02T22:03:34.027Z,101691.19
2022-10-02T22:06:12.441Z,101686.63
2022-10-02T22:08:56.489Z,101693.72
2022-10-02T22:11:35.509Z,101690.34
2022-10-02T22:14:11.902Z,101685.59
2022-10-02T22:16:55.266Z,101681.88
2022-10-02T22:19:41.595Z,101685.28
2022-10-02T22:22:23.020Z,101680.03
2022-10-02T22:25:22.959Z,101667.38
2022-10-02T22:28:12.340Z,101683.75
2022-10-02T22:30:49.059Z,101673.09
2022-10-02T22:33:42.371Z,101676.31
2022-10-02T22:36:42.949Z,101668.22
2022-10-02T22:39:17.916Z,101672.59
2022-10-02T22:41:55.322Z,101670.22
2022-10-02T22:44:31.241Z,101663.78
2022-10-02T22:47:08.201Z,101659.75
2022-10-02T22:49:39.650Z,101664.78
2022-10-02T22:52:17.683Z,101658.00
2022-10-02T22:54:52.681Z,101660.19
2022-10-02T22:57:30.408Z,101621.78
2022-10-02T23:00:04.752Z,101663.19
2022-10-02T23:02:38.329Z,101658.09
2022-10-02T23:05:12.893Z,101660.28
2022-10-02T23:07:46.639Z,101658.56
2022-10-02T23:10:23.956Z,101659.72
2022-10-02T23:13:01.714Z,101655.81
2022-10-02T23:15:42.049Z,101654.81
2022-10-02T23:18:21.954Z,101653.28
2022-10-02T23:21:02.511Z,101654.28
2022-10-02T23:23:37.053Z,101664.53
2022-10-02T23:26:11.860Z,101641.84
2022-10-02T23:28:47.134Z,101651.63
2022-10-02T23:31:23.917Z,101651.09
2022-10-02T23:33:58.297Z,101653.47
2022-10-02T23:36:33.959Z,101653.31
2022-10-02T23:39:12.278Z,101651.44
2022-10-02T23:41:48.221Z,101666.63
2022-10-02T23:44:30.278Z,101656.19
2022-10-02T23:47:11.224Z,101660.63
2022-10-02T23:49:42.621Z,101657.44
2022-10-02T23:52:53.612Z,101658.81
2022-10-02T23:55:38.257Z,101661.31
2022-10-02T23:58:29.975Z,101665.34
